Time;durP1;ratioP1;P1;durP2;ratioP2;P2;SDS_P1;SDS_P2;PMS_P1;PMS_P2;Temp;Humidity;BMP_temperature;BMP_pressure;BME280_temperature;BME280_humidity;BME280_pressure;Samples;Min_cycle;Max_cycle;Signal;HPM_P1;HPM_P2
2021/05/30 00:02:17;;;;;;;;;8.75;8.75;;;;;19.94;40.10;101857.75;5095444;27;45471;-77
2021/05/30 00:04:43;;;;;;;;;7.75;7.25;;;;;19.91;40.04;101857.00;5084578;27;45461;-79
2021/05/30 00:07:09;;;;;;;;;8.00;8.00;;;;;19.88;40.33;101858.03;5090328;27;45457;-79
2021/05/30 00:09:38;;;;;;;;;9.25;9.25;;;;;19.84;40.27;101851.03;5090322;27;45375;-79
2021/05/30 00:12:03;;;;;;;;;9.50;9.50;;;;;19.84;40.98;101852.84;5078363;27;45597;-79
2021/05/30 00:14:29;;;;;;;;;7.75;7.75;;;;;19.83;40.84;101851.09;5093169;27;49939;-78
2021/05/30 00:16:54;;;;;;;;;8.75;8.75;;;;;19.78;40.78;101856.66;5095309;27;45476;-77
2021/05/30 00:19:20;;;;;;;;;9.00;7.00;;;;;19.72;40.88;101851.53;5093704;27;45475;-77
2021/05/30 00:21:45;;;;;;;;;8.75;8.75;;;;;19.67;41.15;101849.00;5094050;27;45414;-77
2021/05/30 00:24:11;;;;;;;;;8.50;8.50;;;;;19.64;41.01;101857.22;5082920;27;47446;-78
2021/05/30 00:26:37;;;;;;;;;8.50;8.50;;;;;19.61;41.47;101856.50;5096635;27;45463;-76
2021/05/30 00:29:03;;;;;;;;;9.75;9.50;;;;;19.58;41.38;101846.72;5096777;27;45293;-78
2021/05/30 00:31:28;;;;;;;;;8.25;8.25;;;;;19.55;41.48;101849.53;5087638;27;45387;-77
2021/05/30 00:33:54;;;;;;;;;11.25;9.00;;;;;19.52;41.56;101846.94;5092894;27;47238;-77
2021/05/30 00:36:19;;;;;;;;;8.00;8.00;;;;;19.49;41.47;101852.44;5092991;27;45477;-77
2021/05/30 00:38:45;;;;;;;;;9.50;9.50;;;;;19.47;41.81;101856.16;5077644;27;46013;-77
2021/05/30 00:41:10;;;;;;;;;11.00;8.75;;;;;19.43;42.03;101855.38;5077588;27;45432;-77
2021/05/30 00:43:50;;;;;;;;;11.00;11.00;;;;;19.39;42.23;101865.41;5084231;27;47967;-77
2021/05/30 00:46:16;;;;;;;;;10.75;9.50;;;;;19.36;42.37;101860.13;5087705;27;45266;-77
2021/05/30 00:48:42;;;;;;;;;8.25;8.25;;;;;19.34;42.08;101859.31;5078403;27;45488;-77
2021/05/30 00:51:08;;;;;;;;;10.25;10.25;;;;;19.30;42.49;101854.97;5088714;27;45430;-77
2021/05/30 00:53:34;;;;;;;;;10.00;10.00;;;;;19.29;42.73;101855.06;5088001;27;47715;-77
2021/05/30 00:56:03;;;;;;;;;11.50;11.50;;;;;19.27;42.59;101843.47;5094625;27;45280;-77
2021/05/30 00:58:29;;;;;;;;;10.75;10.00;;;;;19.26;42.56;101849.81;5099773;27;45499;-77
2021/05/30 01:00:54;;;;;;;;;10.50;10.50;;;;;19.23;42.68;101852.63;5100036;27;45474;-77
2021/05/30 01:03:20;;;;;;;;;10.25;10.25;;;;;19.22;42.74;101856.25;5097169;27;46194;-77
2021/05/30 01:05:47;;;;;;;;;10.50;10.50;;;;;19.19;42.73;101849.19;5096094;27;46173;-77
2021/05/30 01:08:14;;;;;;;;;8.50;8.50;;;;;19.19;43.34;101859.06;5095902;27;45522;-77
2021/05/30 01:10:45;;;;;;;;;9.75;9.75;;;;;19.17;43.46;101851.03;5099817;27;45317;-77
2021/05/30 01:13:12;;;;;;;;;10.75;10.25;;;;;19.15;43.51;101852.91;5096237;27;45360;-77
2021/05/30 01:15:39;;;;;;;;;9.00;9.00;;;;;19.12;43.48;101839.59;5096862;27;46241;-77
2021/05/30 01:18:05;;;;;;;;;11.00;11.00;;;;;19.11;43.67;101846.78;5095345;27;45372;-77
2021/05/30 01:20:31;;;;;;;;;13.25;13.25;;;;;19.10;43.71;101846.84;5093780;27;45368;-77
2021/05/30 01:22:57;;;;;;;;;9.50;9.50;;;;;19.08;43.92;101840.66;5094357;27;47764;-77
2021/05/30 01:25:25;;;;;;;;;12.25;12.25;;;;;19.05;43.90;101838.94;5097470;27;45418;-78
2021/05/30 01:27:52;;;;;;;;;9.00;9.00;;;;;19.03;44.18;101839.94;5102985;27;45620;-78
2021/05/30 01:30:20;;;;;;;;;12.50;11.25;;;;;19.01;44.06;101833.75;5092861;27;45581;-78
2021/05/30 01:32:46;;;;;;;;;11.50;11.00;;;;;18.99;44.01;101838.31;5095711;27;49236;-77
2021/05/30 01:35:13;;;;;;;;;13.00;13.00;;;;;18.95;44.42;101837.56;5095651;27;45418;-77
2021/05/30 01:37:39;;;;;;;;;12.25;12.00;;;;;18.92;44.55;101839.47;5097247;27;45222;-77
2021/05/30 01:40:05;;;;;;;;;13.50;12.00;;;;;18.87;44.68;101836.09;5095579;27;45448;-78
2021/05/30 01:42:30;;;;;;;;;14.25;12.50;;;;;18.82;44.63;101833.59;5084931;27;46543;-75
2021/05/30 01:44:56;;;;;;;;;11.50;10.50;;;;;18.75;45.01;101830.25;5084726;27;45527;-77
2021/05/30 01:47:21;;;;;;;;;12.00;12.00;;;;;18.75;44.61;101835.63;5091667;27;45474;-78
2021/05/30 01:49:47;;;;;;;;;14.00;13.25;;;;;18.74;44.92;101836.56;5095996;27;46416;-77
2021/05/30 01:52:13;;;;;;;;;11.50;10.75;;;;;18.71;44.88;101828.63;5099381;27;47745;-78
2021/05/30 01:54:42;;;;;;;;;14.00;14.00;;;;;18.68;45.36;101822.47;5098384;27;45459;-78
2021/05/30 01:57:09;;;;;;;;;13.00;13.00;;;;;18.67;45.43;101826.94;5095573;27;45403;-77
2021/05/30 01:59:35;;;;;;;;;13.25;13.25;;;;;18.65;45.36;101823.44;5094666;27;45597;-78
2021/05/30 02:02:02;;;;;;;;;14.00;14.00;;;;;18.60;45.45;101817.34;5094200;27;48056;-79
2021/05/30 02:04:38;;;;;;;;;15.25;13.50;;;;;18.58;45.76;101821.91;5100003;27;45486;-77
2021/05/30 02:07:05;;;;;;;;;14.00;13.50;;;;;18.55;45.83;101832.78;5095435;27;45484;-78
2021/05/30 02:09:31;;;;;;;;;14.25;14.25;;;;;18.51;45.91;101834.69;5095252;27;45700;-78
2021/05/30 02:11:58;;;;;;;;;15.00;14.75;;;;;18.50;45.82;101832.06;5092999;27;45388;-76
2021/05/30 02:14:24;;;;;;;;;16.75;15.75;;;;;18.48;46.15;101836.63;5093181;27;45520;-78
2021/05/30 02:16:50;;;;;;;;;15.00;13.50;;;;;18.45;46.11;101834.94;5089444;27;45459;-78
2021/05/30 02:19:15;;;;;;;;;15.25;14.25;;;;;18.45;46.32;101828.69;5078215;27;45550;-77
2021/05/30 02:21:46;;;;;;;;;14.75;14.75;;;;;18.41;46.05;101827.88;5094750;27;47276;-77
2021/05/30 02:24:13;;;;;;;;;15.00;15.00;;;;;18.40;46.37;101834.19;5096272;27;45269;-77
2021/05/30 02:26:39;;;;;;;;;14.00;12.00;;;;;18.35;46.22;101830.81;5091912;27;45440;-76
2021/05/30 02:29:05;;;;;;;;;13.00;12.00;;;;;18.33;46.50;101835.38;5091975;27;45508;-77
2021/05/30 02:31:31;;;;;;;;;14.75;14.00;;;;;18.31;46.60;101839.06;5089545;27;47535;-77
2021/05/30 02:33:57;;;;;;;;;16.00;14.75;;;;;18.30;46.52;101831.94;5092147;27;46005;-77
2021/05/30 02:36:22;;;;;;;;;14.50;13.50;;;;;18.28;46.85;101831.97;5093977;27;45538;-77
2021/05/30 02:38:48;;;;;;;;;14.00;14.00;;;;;18.27;46.60;101832.88;5094848;27;45510;-77
2021/05/30 02:41:14;;;;;;;;;15.00;13.75;;;;;18.27;46.80;101829.31;5091243;27;48342;-79
2021/05/30 02:43:39;;;;;;;;;11.25;11.25;;;;;18.25;47.03;101826.69;5095470;27;45494;-79
2021/05/30 02:46:04;;;;;;;;;15.00;15.00;;;;;18.27;46.95;101834.69;5094148;27;45558;-78
2021/05/30 02:48:30;;;;;;;;;14.25;14.25;;;;;18.23;46.48;101831.25;5094280;27;45443;-78
2021/05/30 02:50:59;;;;;;;;;11.25;11.25;;;;;18.22;46.98;101829.50;5098319;27;45580;-78
2021/05/30 02:53:26;;;;;;;;;15.50;15.50;;;;;18.22;47.03;101832.19;5099566;27;45501;-77
2021/05/30 02:55:51;;;;;;;;;15.50;13.00;;;;;18.18;47.20;101838.63;5094687;27;46017;-77
2021/05/30 02:58:17;;;;;;;;;16.00;15.00;;;;;18.17;47.14;101839.56;5095779;27;45345;-78
2021/05/30 03:00:42;;;;;;;;;14.75;14.00;;;;;18.16;47.22;101835.97;5094682;27;46252;-77
2021/05/30 03:03:07;;;;;;;;;14.75;14.75;;;;;18.10;46.80;101830.81;5091114;27;45363;-77
2021/05/30 03:05:33;;;;;;;;;14.00;14.00;;;;;18.09;47.53;101838.94;5094719;27;45403;-77
2021/05/30 03:07:58;;;;;;;;;13.00;12.50;;;;;18.05;47.05;101834.59;5093213;27;45670;-79
2021/05/30 03:10:23;;;;;;;;;17.00;16.25;;;;;18.04;47.48;101832.81;5090495;27;47885;-77
2021/05/30 03:12:49;;;;;;;;;12.25;12.25;;;;;18.03;47.12;101836.44;5093214;27;46060;-76
2021/05/30 03:15:14;;;;;;;;;16.00;16.00;;;;;18.02;47.36;101840.06;5094337;27;45402;-76
2021/05/30 03:17:40;;;;;;;;;13.00;13.00;;;;;17.99;47.57;101848.22;5092292;27;45467;-79
2021/05/30 03:20:06;;;;;;;;;15.75;15.00;;;;;17.97;47.78;101844.72;5094206;27;47154;-76
2021/05/30 03:22:31;;;;;;;;;17.50;16.00;;;;;17.92;47.73;101851.16;5093293;27;45548;-77
2021/05/30 03:24:57;;;;;;;;;13.25;12.50;;;;;17.88;47.92;101844.09;5093367;27;45375;-78
2021/05/30 03:27:22;;;;;;;;;18.25;16.75;;;;;17.91;47.66;101848.47;5092128;27;45500;-76
2021/05/30 03:29:48;;;;;;;;;16.25;15.25;;;;;17.90;48.11;101838.66;5095394;27;46177;-76
2021/05/30 03:32:13;;;;;;;;;13.75;13.75;;;;;17.87;48.12;101845.03;5094159;27;45543;-78
2021/05/30 03:34:38;;;;;;;;;16.50;16.50;;;;;17.81;48.35;101844.38;5097022;27;45332;-78
2021/05/30 03:37:04;;;;;;;;;16.75;14.25;;;;;17.83;48.15;101853.25;5097830;27;45363;-77
2021/05/30 03:39:31;;;;;;;;;14.00;14.00;;;;;17.81;48.44;101855.13;5094543;27;45578;-77
2021/05/30 03:41:58;;;;;;;;;17.75;17.75;;;;;17.80;48.27;101854.25;5089620;27;45467;-77
2021/05/30 03:44:24;;;;;;;;;17.25;16.25;;;;;17.78;48.21;101856.06;5095228;27;45504;-78
2021/05/30 03:46:50;;;;;;;;;15.75;15.75;;;;;17.71;48.24;101849.16;5097308;27;45716;-77
2021/05/30 03:49:15;;;;;;;;;21.25;18.25;;;;;17.76;48.21;101857.06;5095378;27;48596;-78
2021/05/30 03:51:40;;;;;;;;;11.25;11.25;;;;;17.74;48.61;101857.13;5109663;27;46125;-77
2021/05/30 03:54:06;;;;;;;;;18.00;17.50;;;;;17.74;48.33;101857.13;5106321;27;45477;-76
2021/05/30 03:56:32;;;;;;;;;19.75;19.75;;;;;17.72;48.69;101858.97;5098853;27;46287;-78
2021/05/30 03:58:58;;;;;;;;;17.75;15.00;;;;;17.72;48.55;101864.34;5094638;27;47308;-78
2021/05/30 04:01:23;;;;;;;;;15.50;15.50;;;;;17.71;48.63;101854.53;5096843;27;45336;-78
2021/05/30 04:03:48;;;;;;;;;19.25;16.75;;;;;17.69;48.75;101855.53;5095166;27;45393;-78
2021/05/30 04:06:14;;;;;;;;;20.50;17.00;;;;;17.66;48.74;101859.16;5093778;27;45461;-78
2021/05/30 04:08:39;;;;;;;;;16.00;16.00;;;;;17.63;49.08;101854.75;5090208;27;45387;-76
2021/05/30 04:11:05;;;;;;;;;19.25;19.00;;;;;17.63;49.18;101856.56;5092196;27;45365;-78
2021/05/30 04:13:30;;;;;;;;;18.75;17.25;;;;;17.61;49.28;101853.06;5094900;27;45369;-78
2021/05/30 04:15:56;;;;;;;;;19.75;19.50;;;;;17.59;49.45;101858.47;5086146;27;45537;-78
2021/05/30 04:18:22;;;;;;;;;20.75;19.50;;;;;17.56;49.09;101855.03;5096941;27;48206;-78
2021/05/30 04:20:48;;;;;;;;;18.50;18.00;;;;;17.54;49.33;101856.88;5098912;27;45737;-75
2021/05/30 04:23:14;;;;;;;;;18.75;18.75;;;;;17.52;49.54;101856.91;5096651;27;45364;-78
2021/05/30 04:25:41;;;;;;;;;20.00;19.25;;;;;17.51;49.65;101856.97;5092324;27;46079;-78
2021/05/30 04:28:06;;;;;;;;;19.00;18.00;;;;;17.50;49.46;101857.88;5096620;27;48301;-78
2021/05/30 04:30:32;;;;;;;;;24.25;19.00;;;;;17.50;49.34;101860.56;5095787;27;45482;-75
2021/05/30 04:32:57;;;;;;;;;20.50;20.50;;;;;17.49;50.24;101857.00;5094382;27;45427;-78
2021/05/30 04:35:23;;;;;;;;;17.25;17.25;;;;;17.47;49.81;101853.50;5094405;27;45441;-77
2021/05/30 04:37:48;;;;;;;;;21.50;19.50;;;;;17.45;49.63;101857.16;5096596;27;47461;-77
2021/05/30 04:40:14;;;;;;;;;18.50;16.50;;;;;17.43;50.18;101851.84;5095623;27;45317;-78
2021/05/30 04:42:39;;;;;;;;;21.75;19.75;;;;;17.44;49.89;101855.41;5095617;27;45416;-77
2021/05/30 04:45:06;;;;;;;;;21.25;19.25;;;;;17.42;49.82;101852.78;5094063;27;45370;-78
2021/05/30 04:47:32;;;;;;;;;19.50;19.25;;;;;17.41;50.03;101860.88;5092391;27;48468;-78
2021/05/30 04:49:57;;;;;;;;;19.75;19.75;;;;;17.41;49.82;101858.19;5094400;27;45465;-77
2021/05/30 04:52:23;;;;;;;;;17.50;17.25;;;;;17.39;50.22;101863.59;5101481;27;45286;-78
2021/05/30 04:54:48;;;;;;;;;21.00;17.50;;;;;17.34;50.42;101861.06;5093761;27;45553;-78
2021/05/30 04:57:14;;;;;;;;;22.00;21.75;;;;;17.33;50.50;101863.81;5088302;27;48090;-76
2021/05/30 04:59:39;;;;;;;;;17.75;17.25;;;;;17.33;50.23;101863.81;5086019;27;45456;-78
2021/05/30 05:02:05;;;;;;;;;28.50;22.75;;;;;17.34;50.22;101855.69;5089466;27;46673;-78
2021/05/30 05:04:30;;;;;;;;;20.75;18.50;;;;;17.36;50.62;101855.66;5092568;27;45772;-78
2021/05/30 05:06:55;;;;;;;;;21.00;21.00;;;;;17.40;50.73;101861.78;5088136;27;48403;-76
2021/05/30 05:09:21;;;;;;;;;17.25;16.50;;;;;17.37;50.28;101868.13;5091129;27;45818;-78
2021/05/30 05:11:46;;;;;;;;;21.00;20.00;;;;;17.33;50.48;101866.47;5095085;27;45537;-77
2021/05/30 05:14:12;;;;;;;;;20.00;19.75;;;;;17.32;50.76;101868.28;5079573;27;46414;-77
2021/05/30 05:16:38;;;;;;;;;24.00;22.50;;;;;17.33;50.43;101864.69;5095022;27;48558;-78
2021/05/30 05:19:04;;;;;;;;;22.50;20.50;;;;;17.34;50.49;101862.88;5092608;27;45509;-79
2021/05/30 05:21:30;;;;;;;;;21.00;21.00;;;;;17.32;50.88;101859.38;5088531;27;45428;-78
2021/05/30 05:23:55;;;;;;;;;23.50;23.00;;;;;17.32;50.95;101857.56;5087747;27;45363;-78
2021/05/30 05:26:21;;;;;;;;;20.00;18.00;;;;;17.33;50.66;101861.13;5091010;27;48237;-77
2021/05/30 05:28:48;;;;;;;;;19.75;17.75;;;;;17.34;50.93;101857.50;5087368;27;45419;-79
2021/05/30 05:31:13;;;;;;;;;20.50;16.75;;;;;17.36;50.82;101858.31;5089343;27;45546;-77
2021/05/30 05:33:39;;;;;;;;;20.50;20.50;;;;;17.39;50.47;101851.97;5087509;27;45483;-78
2021/05/30 05:36:05;;;;;;;;;20.00;20.00;;;;;17.43;50.39;101849.16;5093906;27;47389;-78
2021/05/30 05:38:31;;;;;;;;;20.25;20.25;;;;;17.43;50.17;101862.59;5094427;27;45481;-78
2021/05/30 05:40:56;;;;;;;;;19.25;19.25;;;;;17.44;50.38;101850.94;5086968;27;45601;-78
2021/05/30 05:43:21;;;;;;;;;23.00;18.50;;;;;17.46;50.31;101851.75;5093453;27;45603;-77
2021/05/30 05:45:47;;;;;;;;;22.50;22.50;;;;;17.48;50.33;101857.06;5086828;27;48231;-78
2021/05/30 05:48:15;;;;;;;;;19.00;19.00;;;;;17.51;50.69;101854.28;5090758;27;45551;-77
2021/05/30 05:50:41;;;;;;;;;24.25;23.25;;;;;17.51;50.43;101852.47;5091297;27;45504;-78
2021/05/30 05:53:07;;;;;;;;;20.50;19.75;;;;;17.52;50.60;101853.34;5085591;27;45549;-77
2021/05/30 05:55:34;;;;;;;;;18.75;17.75;;;;;17.51;50.25;101852.47;5082900;27;48062;-76
2021/05/30 05:58:00;;;;;;;;;18.50;18.50;;;;;17.53;50.58;101855.09;5084480;27;45991;-77
2021/05/30 06:00:26;;;;;;;;;16.75;16.25;;;;;17.53;50.40;101850.63;5085733;27;45536;-77
2021/05/30 06:02:52;;;;;;;;;20.25;17.00;;;;;17.55;50.15;101842.53;5090083;27;45640;-78
2021/05/30 06:05:19;;;;;;;;;22.25;20.75;;;;;17.57;50.30;101851.41;5088383;27;45891;-78
2021/05/30 06:07:46;;;;;;;;;21.00;19.25;;;;;17.57;50.31;101852.28;5085797;27;45698;-78
2021/05/30 06:10:13;;;;;;;;;22.75;22.75;;;;;17.59;50.27;101852.22;5084636;27;45510;-78
2021/05/30 06:12:39;;;;;;;;;22.50;22.50;;;;;17.58;50.12;101848.66;5093442;27;45625;-79
2021/05/30 06:15:06;;;;;;;;;22.50;19.00;;;;;17.59;50.55;101844.19;5090785;27;47024;-78
2021/05/30 06:17:31;;;;;;;;;18.50;18.50;;;;;17.59;50.23;101847.72;5084941;27;45396;-79
2021/05/30 06:19:56;;;;;;;;;20.50;18.25;;;;;17.62;50.28;101849.44;5084003;27;45447;-77
2021/05/30 06:22:22;;;;;;;;;22.00;19.50;;;;;17.62;50.26;101854.81;5082669;27;45423;-77
2021/05/30 06:24:47;;;;;;;;;23.50;23.50;;;;;17.64;50.50;101858.31;5092231;27;47503;-77
2021/05/30 06:27:13;;;;;;;;;19.25;19.25;;;;;17.65;50.63;101858.25;5084549;27;45352;-77
2021/05/30 06:29:38;;;;;;;;;21.50;20.75;;;;;17.67;50.77;101857.34;5092167;27;45365;-77
2021/05/30 06:32:04;;;;;;;;;19.75;19.50;;;;;17.71;50.80;101864.41;5087430;27;45861;-78
2021/05/30 06:34:30;;;;;;;;;22.00;21.50;;;;;17.75;50.97;101860.69;5078541;27;46877;-77
2021/05/30 06:36:56;;;;;;;;;22.25;20.75;;;;;17.76;50.72;101854.38;5089027;27;45386;-78
2021/05/30 06:39:23;;;;;;;;;17.50;17.50;;;;;17.77;50.52;101856.13;5088431;27;45394;-79
2021/05/30 06:41:49;;;;;;;;;23.00;21.00;;;;;17.78;50.64;101863.25;5091905;27;45657;-78
2021/05/30 06:44:15;;;;;;;;;18.75;18.75;;;;;17.80;49.95;101854.25;5092125;27;47694;-78
2021/05/30 06:46:40;;;;;;;;;21.25;21.25;;;;;17.84;50.38;101860.38;5079561;27;45502;-79
2021/05/30 06:49:06;;;;;;;;;18.00;17.50;;;;;17.85;50.58;101863.00;5086663;27;45392;-79
2021/05/30 06:51:32;;;;;;;;;22.50;20.00;;;;;17.88;50.58;101860.22;5086367;27;45383;-79
2021/05/30 06:54:00;;;;;;;;;18.00;16.50;;;;;17.91;50.28;101862.81;5093166;27;47995;-77
2021/05/30 06:56:26;;;;;;;;;21.00;20.00;;;;;17.96;49.64;101864.47;5082303;27;45699;-81
2021/05/30 06:58:52;;;;;;;;;23.00;19.75;;;;;17.99;49.10;101865.22;5093443;27;45320;-79
2021/05/30 07:01:21;;;;;;;;;15.00;14.00;;;;;18.01;49.45;101860.66;5090638;27;45518;-79
2021/05/30 07:03:48;;;;;;;;;18.25;15.00;;;;;18.05;49.10;101867.72;5087450;27;46127;-78
2021/05/30 07:06:14;;;;;;;;;18.50;18.25;;;;;18.10;49.19;101864.84;5087610;27;45667;-78
2021/05/30 07:08:39;;;;;;;;;18.25;17.00;;;;;18.12;49.10;101860.31;5091131;27;45506;-80
2021/05/30 07:11:06;;;;;;;;;17.75;17.75;;;;;18.17;49.02;101861.03;5090156;27;45424;-78
2021/05/30 07:13:31;;;;;;;;;18.00;17.00;;;;;18.22;49.10;101867.13;5094431;27;48451;-78
2021/05/30 07:15:57;;;;;;;;;19.25;17.75;;;;;18.26;48.89;101865.19;5089838;27;46561;-78
2021/05/30 07:18:23;;;;;;;;;16.75;14.50;;;;;18.26;48.34;101866.06;5090680;27;45450;-69
2021/05/30 07:20:51;;;;;;;;;16.25;16.25;;;;;18.29;48.98;101874.00;5086510;27;45476;-71
2021/05/30 07:23:18;;;;;;;;;15.25;14.00;;;;;18.37;48.46;101873.75;5092992;27;45886;-72
2021/05/30 07:25:44;;;;;;;;;16.75;15.25;;;;;18.44;48.78;101865.44;5094844;27;45550;-70
2021/05/30 07:28:09;;;;;;;;;16.50;16.50;;;;;18.55;48.34;101867.72;5085275;27;45574;-73
2021/05/30 07:30:35;;;;;;;;;15.75;15.75;;;;;18.57;48.04;101851.53;5084859;27;45519;-73
2021/05/30 07:33:02;;;;;;;;;16.50;14.25;;;;;18.67;47.97;101861.03;5084460;27;47720;-73
2021/05/30 07:35:29;;;;;;;;;19.50;19.50;;;;;18.72;48.03;101851.88;5092186;27;45452;-73
2021/05/30 07:37:55;;;;;;;;;14.75;14.75;;;;;18.80;47.92;101854.25;5089711;27;45518;-73
2021/05/30 07:40:21;;;;;;;;;16.00;14.75;;;;;18.88;47.75;101854.84;5093378;27;45437;-72
2021/05/30 07:42:46;;;;;;;;;15.75;14.75;;;;;18.93;47.35;101855.56;5087595;27;47979;-74
2021/05/30 07:45:13;;;;;;;;;14.25;14.25;;;;;18.97;47.58;101854.50;5090417;27;45886;-76
2021/05/30 07:47:40;;;;;;;;;16.50;15.00;;;;;18.99;47.34;101849.94;5091138;27;45498;-72
2021/05/30 07:50:07;;;;;;;;;14.75;14.75;;;;;19.03;47.36;101848.00;5085090;27;45202;-72
2021/05/30 07:52:32;;;;;;;;;14.75;14.75;;;;;19.09;46.98;101855.84;5088483;27;46130;-74
2021/05/30 07:54:58;;;;;;;;;13.75;13.75;;;;;19.12;47.32;101850.34;5094351;27;45445;-73
2021/05/30 07:57:23;;;;;;;;;13.00;12.50;;;;;19.16;47.12;101843.91;5092139;27;45527;-76
2021/05/30 07:59:48;;;;;;;;;14.75;14.75;;;;;19.24;46.79;101846.28;5092408;27;46683;-73
2021/05/30 08:02:14;;;;;;;;;14.25;14.00;;;;;19.29;47.12;101849.66;5090219;27;46351;-72
2021/05/30 08:04:39;;;;;;;;;16.75;15.75;;;;;19.33;46.65;101856.72;5087553;27;45471;-73
2021/05/30 08:07:05;;;;;;;;;11.00;11.00;;;;;19.35;46.52;101849.44;5104414;27;45513;-72
2021/05/30 08:09:30;;;;;;;;;12.50;11.50;;;;;19.37;46.68;101848.44;5087919;27;45576;-73
2021/05/30 08:11:58;;;;;;;;;16.75;16.25;;;;;19.41;46.44;101841.09;5090932;27;47550;-73
2021/05/30 08:14:24;;;;;;;;;15.25;14.75;;;;;19.43;46.26;101847.28;5090824;27;46170;-74
2021/05/30 08:16:50;;;;;;;;;18.75;18.75;;;;;19.48;46.13;101845.31;5088514;27;45516;-76
2021/05/30 08:19:15;;;;;;;;;13.50;13.50;;;;;19.53;46.27;101851.38;5087713;27;46238;-75
2021/05/30 08:21:42;;;;;;;;;11.75;10.50;;;;;19.56;46.15;101845.00;5091918;27;47891;-74
2021/05/30 08:24:08;;;;;;;;;14.75;13.25;;;;;19.60;46.04;101839.47;5090344;27;46081;-74
2021/05/30 08:26:33;;;;;;;;;17.00;13.50;;;;;19.63;45.76;101846.53;5093029;27;45551;-73
2021/05/30 08:28:59;;;;;;;;;15.50;14.50;;;;;19.65;45.91;101844.63;5090307;27;45417;-74
2021/05/30 08:31:24;;;;;;;;;12.75;12.75;;;;;19.68;45.54;101845.38;5092976;27;47611;-74
2021/05/30 08:33:50;;;;;;;;;13.50;12.50;;;;;19.72;45.67;101840.75;5094759;27;46530;-73
2021/05/30 08:36:15;;;;;;;;;13.00;11.75;;;;;19.75;45.35;101840.63;5093656;27;45704;-74
2021/05/30 08:38:41;;;;;;;;;14.25;14.00;;;;;19.77;45.61;101836.03;5093263;27;46503;-74
2021/05/30 08:41:07;;;;;;;;;12.75;12.75;;;;;19.79;45.82;101836.84;5095944;27;46438;-73
2021/05/30 08:43:32;;;;;;;;;13.50;13.50;;;;;19.81;45.54;101829.56;5093933;27;45385;-75
2021/05/30 08:45:57;;;;;;;;;15.00;14.75;;;;;19.83;45.42;101830.41;5090446;27;45346;-74
2021/05/30 08:48:23;;;;;;;;;14.25;14.25;;;;;19.85;45.44;101831.22;5084072;27;45650;-74
2021/05/30 08:51:04;;;;;;;;;15.00;13.50;;;;;19.92;45.31;101823.75;5092347;27;47657;-74
2021/05/30 08:53:31;;;;;;;;;14.75;13.50;;;;;19.96;45.55;101820.88;5096862;27;45593;-74
2021/05/30 08:55:56;;;;;;;;;13.00;12.00;;;;;20.01;45.18;101819.78;5088597;27;45481;-75
2021/05/30 08:58:22;;;;;;;;;17.25;16.00;;;;;20.03;45.20;101821.47;5087516;27;45577;-72
2021/05/30 09:01:07;;;;;;;;;13.75;13.75;;;;;20.10;45.54;101809.47;5083934;27;46012;-73
2021/05/30 09:03:32;;;;;;;;;13.00;13.00;;;;;20.14;45.25;101819.19;5096806;27;45505;-73
2021/05/30 09:06:14;;;;;;;;;15.00;15.00;;;;;20.20;45.36;101818.00;5084008;27;45432;-74
2021/05/30 09:08:42;;;;;;;;;12.50;12.25;;;;;20.23;44.93;101809.81;5089306;27;45574;-73
2021/05/30 09:11:08;;;;;;;;;12.00;12.00;;;;;20.27;44.66;101815.00;5089853;27;46992;-74
2021/05/30 09:13:39;;;;;;;;;12.75;12.75;;;;;20.33;44.63;101810.25;5082466;27;45392;-72
2021/05/30 09:18:34;;;;;;;;;11.75;11.75;;;;;20.38;44.21;101813.63;5088081;27;45469;-75
2021/05/30 09:21:01;;;;;;;;;14.00;14.00;;;;;20.40;44.16;101817.13;5089014;27;47837;-74
2021/05/30 09:23:30;;;;;;;;;13.00;12.25;;;;;20.43;44.13;101825.13;5081982;27;45485;-73
2021/05/30 09:26:18;;;;;;;;;11.75;11.25;;;;;20.44;43.89;101816.94;5087835;27;45463;-74
2021/05/30 09:29:09;;;;;;;;;12.50;12.00;;;;;20.46;43.74;101815.09;5083528;27;46046;-76
2021/05/30 09:31:52;;;;;;;;;13.75;13.75;;;;;20.48;43.74;101810.50;5088581;27;48526;-74
2021/05/30 09:34:44;;;;;;;;;10.50;10.25;;;;;20.51;43.76;101815.75;5085901;27;46145;-75
2021/05/30 09:37:09;;;;;;;;;12.75;12.75;;;;;20.54;43.78;101817.41;5087223;27;45552;-75
2021/05/30 09:39:44;;;;;;;;;11.75;11.75;;;;;20.56;43.38;101810.13;5083094;27;45468;-74
2021/05/30 09:42:25;;;;;;;;;10.00;10.00;;;;;20.61;43.58;101821.59;5092270;27;48355;-74
2021/05/30 09:44:59;;;;;;;;;11.00;11.00;;;;;20.64;43.19;101802.56;5093041;27;46071;-74
2021/05/30 09:47:41;;;;;;;;;12.75;11.75;;;;;20.67;43.05;101799.72;5090611;27;45511;-74
2021/05/30 09:50:09;;;;;;;;;11.25;10.75;;;;;20.69;42.61;101803.22;5091482;27;45951;-73
2021/05/30 09:52:48;;;;;;;;;12.50;12.50;;;;;20.73;42.69;101802.16;5088232;27;48351;-74
2021/05/30 09:55:22;;;;;;;;;9.75;9.75;;;;;20.75;42.32;101800.25;5084203;27;45431;-74
2021/05/30 09:58:08;;;;;;;;;13.75;12.00;;;;;20.79;42.35;101798.28;5093520;27;45395;-73
2021/05/30 10:00:34;;;;;;;;;12.75;11.25;;;;;20.83;42.21;101798.06;5082082;27;45473;-73
2021/05/30 10:02:59;;;;;;;;;10.25;10.25;;;;;20.85;41.41;101796.19;5099460;27;46092;-75
2021/05/30 10:05:25;;;;;;;;;12.00;12.00;;;;;20.88;41.87;101787.06;5090698;27;45574;-74
2021/05/30 10:07:51;;;;;;;;;10.50;10.50;;;;;20.91;41.75;101789.59;5093692;27;45256;-73
2021/05/30 10:10:18;;;;;;;;;9.50;9.50;;;;;20.93;42.07;101786.81;5080578;27;45561;-85
2021/05/30 10:12:46;;;;;;;;;12.75;11.00;;;;;20.97;41.85;101786.63;5090545;27;46840;-77
2021/05/30 10:15:12;;;;;;;;;10.50;10.00;;;;;20.98;41.25;101765.91;5096314;27;45433;-70
2021/05/30 10:17:39;;;;;;;;;10.25;10.25;;;;;21.01;40.81;101782.81;5090061;27;45458;-73
2021/05/30 10:20:08;;;;;;;;;10.00;10.00;;;;;21.04;41.51;101771.00;5089259;27;45416;-74
2021/05/30 10:22:35;;;;;;;;;9.25;9.25;;;;;21.06;41.04;101769.09;5091557;27;47249;-73
2021/05/30 10:25:01;;;;;;;;;12.00;12.00;;;;;21.11;40.66;101772.47;5089379;27;45515;-73
2021/05/30 10:27:27;;;;;;;;;9.00;9.00;;;;;21.16;41.27;101765.00;5093106;27;45388;-74
2021/05/30 10:30:11;;;;;;;;;8.75;8.75;;;;;21.22;39.65;101770.09;5091106;27;45451;-73
2021/05/30 10:32:38;;;;;;;;;9.50;9.00;;;;;21.24;39.51;101768.19;5088226;27;48077;-75
2021/05/30 10:35:20;;;;;;;;;9.25;9.25;;;;;21.26;40.18;101776.25;5082004;27;45406;-74
2021/05/30 10:37:51;;;;;;;;;10.00;9.75;;;;;21.28;40.15;101775.22;5085999;27;45401;-74
2021/05/30 10:40:25;;;;;;;;;11.50;10.00;;;;;21.35;39.76;101773.97;5085808;27;46119;-74
2021/05/30 10:43:09;;;;;;;;;7.75;7.75;;;;;21.40;39.70;101774.63;5090776;27;47742;-72
2021/05/30 10:45:41;;;;;;;;;8.25;8.25;;;;;21.48;39.42;101773.38;5081446;27;45530;-73
2021/05/30 10:48:07;;;;;;;;;9.50;9.50;;;;;21.51;39.87;101765.09;5085406;27;45490;-72
2021/05/30 10:50:51;;;;;;;;;7.50;7.50;;;;;21.55;39.89;101764.84;5096453;27;45618;-71
2021/05/30 10:53:47;;;;;;;;;9.75;9.25;;;;;21.58;39.68;101763.81;5097118;27;45864;-73
2021/05/30 10:56:34;;;;;;;;;6.50;6.25;;;;;21.62;39.16;101757.34;5080978;27;45496;-72
2021/05/30 10:59:06;;;;;;;;;7.25;6.00;;;;;21.64;38.92;101748.19;5086550;27;45342;-75
2021/05/30 11:01:34;;;;;;;;;9.50;9.50;;;;;21.63;37.74;101745.56;5095780;27;45435;-72
2021/05/30 11:04:23;;;;;;;;;8.00;7.00;;;;;21.67;38.08;101749.84;5095117;27;45537;-73
2021/05/30 11:06:49;;;;;;;;;8.00;7.00;;;;;21.67;37.87;101742.63;5074527;27;45484;-73
2021/05/30 11:09:16;;;;;;;;;8.75;8.75;;;;;21.69;37.86;101743.41;5094062;27;45447;-74
2021/05/30 11:11:41;;;;;;;;;6.75;6.75;;;;;21.75;37.94;101747.63;5083365;27;45485;-73
2021/05/30 11:14:14;;;;;;;;;8.75;8.75;;;;;21.81;38.27;101746.44;5090061;27;45438;-73
2021/05/30 11:16:44;;;;;;;;;8.00;8.00;;;;;21.84;37.53;101740.84;5083186;27;45443;-71